createdAt,value
2023-02-12T00:03:39.563Z,42.37
2023-02-12T00:08:41.532Z,47.65
2023-02-12T00:13:43.682Z,48.01
2023-02-12T00:18:46.776Z,47.86
2023-02-12T00:23:49.081Z,45.53
2023-02-12T00:28:51.659Z,45.16
2023-02-12T00:33:53.678Z,44.56
2023-02-12T00:38:56.988Z,44.71
2023-02-12T00:43:59.004Z,44.45
2023-02-12T00:49:00.831Z,44.14
2023-02-12T00:54:02.609Z,44.08
2023-02-12T00:59:04.614Z,44.14
2023-02-12T01:04:06.541Z,43.91
2023-02-12T01:09:08.444Z,43.89
2023-02-12T01:14:10.306Z,43.99
2023-02-12T01:19:13.325Z,44.25
2023-02-12T01:24:15.174Z,43.89
2023-02-12T01:29:17.128Z,43.61
2023-02-12T01:34:20.116Z,43.83
2023-02-12T01:39:22.504Z,43.91
2023-02-12T01:44:29.653Z,43.95
2023-02-12T01:49:38.228Z,43.58
2023-02-12T01:54:42.027Z,43.86
2023-02-12T01:59:46.131Z,43.61
2023-02-12T02:04:53.550Z,43.74
2023-02-12T02:09:56.746Z,43.69
2023-02-12T02:15:01.319Z,43.74
2023-02-12T02:20:47.194Z,43.63
2023-02-12T02:26:04.245Z,43.83
2023-02-12T02:31:21.537Z,43.76
2023-02-12T02:36:54.458Z,43.96
2023-02-12T02:42:11.619Z,43.63
2023-02-12T02:47:15.381Z,43.68
2023-02-12T02:52:23.103Z,43.56
2023-02-12T02:57:34.446Z,43.70
2023-02-12T03:02:40.764Z,43.85
2023-02-12T03:07:48.080Z,43.71
2023-02-12T03:13:02.580Z,43.76
2023-02-12T03:18:11.578Z,43.71
2023-02-12T03:23:19.055Z,43.70
2023-02-12T03:28:27.372Z,43.95
2023-02-12T03:33:47.805Z,43.90
2023-02-12T03:38:54.540Z,43.63
2023-02-12T03:44:06.154Z,43.67
2023-02-12T03:49:18.303Z,43.59
2023-02-12T03:54:22.489Z,43.81
2023-02-12T03:59:25.921Z,43.60
2023-02-12T04:04:28.568Z,43.82
2023-02-12T04:09:32.368Z,43.92
2023-02-12T04:14:54.231Z,43.93
2023-02-12T04:20:06.012Z,43.95
2023-02-12T04:25:26.493Z,43.71
2023-02-12T04:30:35.828Z,43.68
2023-02-12T04:35:59.910Z,43.80
2023-02-12T04:41:04.952Z,43.79
2023-02-12T04:46:08.646Z,44.06
2023-02-12T04:51:11.150Z,44.09
2023-02-12T04:56:13.819Z,43.74
2023-02-12T05:01:15.835Z,43.73
2023-02-12T05:06:17.811Z,43.91
2023-02-12T05:11:19.806Z,43.94
2023-02-12T05:16:22.511Z,43.82
2023-02-12T05:21:24.567Z,43.80
2023-02-12T05:26:26.402Z,43.87
2023-02-12T05:31:28.312Z,43.89
2023-02-12T05:36:30.321Z,43.91
2023-02-12T05:41:35.362Z,43.83
2023-02-12T05:46:37.597Z,43.87
2023-02-12T05:51:39.733Z,44.01
2023-02-12T05:56:48.412Z,43.84
2023-02-12T06:01:52.231Z,43.95
2023-02-12T06:06:56.260Z,44.08
2023-02-12T06:11:58.240Z,44.09
2023-02-12T06:17:00.177Z,44.06
2023-02-12T06:22:01.975Z,43.66
2023-02-12T06:27:04.030Z,44.08
2023-02-12T06:32:08.738Z,44.06
2023-02-12T06:37:12.006Z,43.89
2023-02-12T06:42:13.905Z,44.12
2023-02-12T06:47:15.736Z,43.86
2023-02-12T06:52:17.827Z,43.91
2023-02-12T06:57:19.828Z,44.18
2023-02-12T07:02:22.089Z,44.19
2023-02-12T07:07:23.926Z,44.16
2023-02-12T07:12:25.943Z,44.14
2023-02-12T07:17:30.373Z,43.89
2023-02-12T07:22:32.306Z,44.05
2023-02-12T07:27:37.072Z,43.89
2023-02-12T07:32:39.169Z,44.12
2023-02-12T07:37:41.237Z,43.99
2023-02-12T07:42:43.045Z,44.25
2023-02-12T07:47:45.174Z,44.30
2023-02-12T07:52:50.400Z,44.34
2023-02-12T07:57:52.441Z,43.90
2023-02-12T08:02:54.577Z,44.10
2023-02-12T08:07:56.515Z,43.97
2023-02-12T08:12:58.438Z,44.09
2023-02-12T08:18:01.957Z,43.94
2023-02-12T08:23:03.816Z,44.08
2023-02-12T08:28:06.422Z,43.97
2023-02-12T08:33:08.375Z,43.96
2023-02-12T08:38:10.492Z,43.92
2023-02-12T08:43:12.545Z,44.60
2023-02-12T08:48:14.546Z,44.57
2023-02-12T08:53:16.478Z,44.40
2023-02-12T08:58:18.742Z,44.55
2023-02-12T09:03:20.694Z,44.46
2023-02-12T09:08:22.940Z,44.40
2023-02-12T09:13:24.979Z,44.27
2023-02-12T09:18:27.014Z,44.49
2023-02-12T09:23:28.964Z,44.63
2023-02-12T09:28:31.348Z,45.74
2023-02-12T09:33:33.687Z,45.45
2023-02-12T09:38:35.827Z,46.19
2023-02-12T09:43:47.945Z,46.62
2023-02-12T09:49:11.736Z,47.72
2023-02-12T09:54:16.222Z,47.26
2023-02-12T09:59:35.933Z,46.99
2023-02-12T10:04:43.969Z,47.16
2023-02-12T10:10:10.777Z,47.74
2023-02-12T10:15:33.141Z,47.99
2023-02-12T10:20:58.352Z,48.30
2023-02-12T10:26:10.114Z,48.22
2023-02-12T10:31:32.441Z,47.95
2023-02-12T10:36:44.179Z,47.51
2023-02-12T10:42:10.969Z,47.45
2023-02-12T10:47:24.283Z,47.14
2023-02-12T10:52:53.566Z,46.71
2023-02-12T10:57:56.331Z,46.56
2023-02-12T11:03:19.556Z,46.39
2023-02-12T11:08:34.196Z,46.17
2023-02-12T11:13:36.515Z,46.17
2023-02-12T11:18:39.079Z,45.84
2023-02-12T11:23:44.221Z,45.95
2023-02-12T11:28:55.774Z,45.92
2023-02-12T11:34:13.183Z,45.73
2023-02-12T11:39:36.703Z,45.74
2023-02-12T11:44:41.870Z,45.31
2023-02-12T11:49:51.414Z,45.17
2023-02-12T11:54:56.939Z,45.39
2023-02-12T12:00:01.638Z,44.99
2023-02-12T12:05:21.428Z,45.05
2023-02-12T12:10:23.184Z,45.10
2023-02-12T12:15:48.522Z,44.84
2023-02-12T12:20:56.297Z,44.66
2023-02-12T12:26:07.134Z,44.80
2023-02-12T12:31:39.479Z,44.80
2023-02-12T12:37:00.408Z,44.53
2023-02-12T12:42:11.384Z,44.40
2023-02-12T12:47:40.022Z,44.69
2023-02-12T12:53:19.285Z,44.39
2023-02-12T12:58:48.847Z,44.61
2023-02-12T13:03:59.858Z,44.33
2023-02-12T13:09:19.761Z,44.42
2023-02-12T13:14:40.317Z,44.42
2023-02-12T13:19:55.962Z,44.41
2023-02-12T13:25:07.152Z,44.35
2023-02-12T13:30:15.757Z,44.10
2023-02-12T13:35:23.682Z,44.28
2023-02-12T13:40:28.498Z,44.24
2023-02-12T13:45:49.529Z,44.14
2023-02-12T13:51:37.790Z,44.17
2023-02-12T13:56:50.001Z,44.21
2023-02-12T14:01:51.977Z,43.90
2023-02-12T14:07:12.969Z,44.07
2023-02-12T14:12:30.653Z,43.68
2023-02-12T14:17:32.590Z,43.92
2023-02-12T14:22:34.382Z,43.87
2023-02-12T14:28:11.768Z,44.01
2023-02-12T14:33:24.324Z,43.65
2023-02-12T14:38:32.215Z,43.66
2023-02-12T14:43:57.287Z,43.67
2023-02-12T14:49:05.749Z,43.80
2023-02-12T14:54:19.301Z,43.80
2023-02-12T14:59:24.773Z,43.70
2023-02-12T15:04:35.499Z,43.42
2023-02-12T15:09:44.445Z,43.70
2023-02-12T15:14:51.640Z,43.37
2023-02-12T15:20:00.222Z,43.76
2023-02-12T15:25:26.645Z,43.60
2023-02-12T15:30:32.369Z,43.64
2023-02-12T15:35:40.032Z,43.47
2023-02-12T15:40:54.561Z,44.12
2023-02-12T15:45:56.747Z,43.72
2023-02-12T15:51:17.342Z,43.97
2023-02-12T15:56:23.363Z,43.97
2023-02-12T16:01:30.639Z,43.92
2023-02-12T16:06:34.927Z,43.71
2023-02-12T16:11:37.607Z,43.88
2023-02-12T16:16:51.550Z,43.78
2023-02-12T16:21:53.356Z,43.58
2023-02-12T16:26:56.230Z,43.61
2023-02-12T16:32:03.188Z,43.76
2023-02-12T16:37:45.426Z,43.80
2023-02-12T16:42:47.359Z,43.35
2023-02-12T16:47:50.732Z,43.66
2023-02-12T16:53:07.764Z,43.56
2023-02-12T16:58:09.694Z,43.22
2023-02-12T17:03:16.681Z,43.51
2023-02-12T17:08:21.900Z,43.27
2023-02-12T17:13:23.908Z,43.38
2023-02-12T17:18:26.003Z,43.47
2023-02-12T17:23:28.772Z,43.37
2023-02-12T17:28:32.242Z,43.45
2023-02-12T17:33:34.105Z,43.37
2023-02-12T17:38:36.157Z,43.24
2023-02-12T17:43:38.482Z,43.12
2023-02-12T17:48:40.916Z,43.17
2023-02-12T17:53:43.744Z,43.30
2023-02-12T17:58:46.760Z,43.02
2023-02-12T18:03:52.351Z,43.31
2023-02-12T18:08:57.394Z,42.95
2023-02-12T18:14:00.338Z,42.91
2023-02-12T18:19:04.990Z,42.90
2023-02-12T18:24:07.349Z,43.22
2023-02-12T18:29:09.244Z,43.00
2023-02-12T18:34:11.349Z,42.84
2023-02-12T18:39:13.241Z,42.77
2023-02-12T18:44:15.615Z,43.03
2023-02-12T18:49:17.577Z,43.05
2023-02-12T18:54:19.835Z,42.92
2023-02-12T18:59:21.898Z,43.11
2023-02-12T19:04:24.310Z,42.73
2023-02-12T19:09:27.174Z,42.78
2023-02-12T19:14:29.337Z,42.95
2023-02-12T19:19:31.345Z,42.81
2023-02-12T19:24:45.880Z,42.66
2023-02-12T19:29:48.390Z,42.65
2023-02-12T19:34:50.454Z,42.78
2023-02-12T19:39:53.274Z,42.65
2023-02-12T19:44:55.323Z,42.89
2023-02-12T19:49:57.411Z,42.74
2023-02-12T19:54:59.262Z,42.85
2023-02-12T20:00:01.131Z,42.67
2023-02-12T20:05:03.308Z,45.51
2023-02-12T20:10:05.705Z,45.92
2023-02-12T20:15:07.925Z,46.05
2023-02-12T20:20:10.499Z,45.99
2023-02-12T20:25:12.292Z,47.29
2023-02-12T20:30:14.911Z,46.14
2023-02-12T20:35:16.973Z,46.42
2023-02-12T20:40:18.820Z,46.23
2023-02-12T20:45:20.580Z,45.80
2023-02-12T20:50:22.601Z,45.65
2023-02-12T20:55:24.911Z,47.57
2023-02-12T21:00:26.832Z,46.46
2023-02-12T21:05:29.188Z,46.21
2023-02-12T21:10:32.862Z,46.05
2023-02-12T21:15:34.688Z,46.03
2023-02-12T21:20:36.657Z,45.84
2023-02-12T21:25:38.803Z,45.26
2023-02-12T21:30:40.901Z,47.80
2023-02-12T21:35:42.840Z,46.78
2023-02-12T21:40:44.806Z,45.67
2023-02-12T21:45:51.255Z,45.37
2023-02-12T21:50:53.232Z,44.44
2023-02-12T21:55:55.967Z,47.05
2023-02-12T22:01:07.280Z,48.16
2023-02-12T22:06:09.385Z,47.99
2023-02-12T22:11:13.454Z,46.36
2023-02-12T22:16:23.328Z,45.40
2023-02-12T22:21:28.325Z,44.61
2023-02-12T22:26:31.650Z,44.85
2023-02-12T22:31:36.111Z,44.97
2023-02-12T22:36:39.404Z,44.78
2023-02-12T22:41:44.671Z,44.41
2023-02-12T22:46:46.551Z,44.42
2023-02-12T22:51:48.512Z,44.11
2023-02-12T22:56:51.888Z,44.13
2023-02-12T23:01:53.806Z,43.84
2023-02-12T23:06:55.637Z,44.20
2023-02-12T23:11:57.594Z,44.03
2023-02-12T23:16:59.602Z,43.83
2023-02-12T23:22:01.953Z,44.01
2023-02-12T23:27:03.783Z,43.84
2023-02-12T23:32:05.887Z,43.69
2023-02-12T23:37:07.912Z,43.51
2023-02-12T23:42:10.155Z,43.59
2023-02-12T23:47:12.026Z,43.83
2023-02-12T23:52:13.927Z,43.75
2023-02-12T23:57:15.827Z,43.58
